Station: Mackay  

  Atmospheric Gas Attenuation - ITU Rec 676-11   ----------------- dB/100km -----------------
Date Time Temp RH % AH g/m3 Dew Point Wind Direction Speed kph Gust kph Barometer mB Rainfall Since 9am 24GHz 47GHz 76GHz 122GHz 134GHz 241GHz
06/05 17:40 23.4 85 17.87 20.7 7 15 1013.9 2 38.7 38.7 73.5 194.3 212.1 736.6
06/05 17:30 23.4 85 17.87 20.7 13 19 1013.8 2 38.7 38.7 73.5 194.3 212.1 736.5
06/05 17:20 23.5 83 17.55 20.4 13 17 1013.7 2 38.0 38.0 71.9 190.1 206.9 718.5
06/05 17:10 23.9 85 18.39 21.2 13 15 1013.6 2 39.8 39.4 75.4 199.5 218.7 759.3
06/05 17:00 24.1 81 17.72 20.6 11 20 1013.5 2 38.3 38.1 72.1 190.6 207.8 721.7
06/05 16:50 24.1 81 17.72 20.6 15 20 1013.3 2 38.3 38.1 72.1 190.6 207.8 721.6
06/05 16:40 24.1 80 17.5 20.4 11 15 1013.1 2 37.9 37.6 71.1 187.9 204.5 709.9
06/05 16:30 24.2 80 17.6 20.5 15 19 1013.1 2 38.1 37.8 71.4 188.8 205.7 714.2
06/05 16:20 24.9 79 18.08 21 11 13 1013 2 39.0 38.3 73.0 193.0 211.0 732.7
06/05 16:10 24.6 79 17.78 20.7 15 19 1013 2 38.4 37.9 71.9 190.0 207.3 719.8
06/05 16:00 24.3 81 17.92 20.8 17 24 1012.9 2 38.7 38.3 72.8 192.5 210.2 730.0
06/05 15:50 24.1 84 18.38 21.2 19 24 1012.9 2 39.7 39.3 75.1 198.7 217.8 756.4
06/05 15:40 24.5 83 18.58 21.4 13 19 1013 2 40.1 39.5 75.7 200.2 219.7 763.2
06/05 15:30 24.6 79 17.78 20.7 17 24 1012.9 2 38.4 37.9 71.9 190.0 207.3 719.8
06/05 15:20 24.9 76 17.4 20.4 13 19 1013 2 37.6 37.1 69.9 184.7 200.8 697.3
06/05 15:10 25.4 74 17.42 20.4 13 17 1013 2 37.6 36.9 69.5 183.7 199.8 693.7
06/05 15:00 25.6 74 17.62 20.6 15 22 1013.1 2 38.0 37.2 70.2 185.7 202.2 702.2
06/05 14:50 26.1 76 18.61 21.5 11 17 1013.2 2 40.0 38.8 74.3 196.4 215.6 748.9
06/05 14:40 25.5 75 17.76 20.7 15 20 1013.2 2 38.3 37.5 70.9 187.6 204.5 710.4
06/05 14:30 25.9 76 18.4 21.3 13 24 1013.3 2 39.6 38.5 73.5 194.4 213.0 739.9
06/05 14:20 25.4 76 17.89 20.9 17 20 1013.3 2 38.6 37.8 71.6 189.4 206.8 718.2
06/05 14:10 25 78 17.96 20.9 19 22 1013.4 2 38.7 38.1 72.3 191.3 208.9 725.7
06/05 14:00 24.9 80 18.31 21.2 15 26 1013.5 2 39.5 38.8 74.1 195.9 214.5 745.1
06/05 13:50 25.1 81 18.75 21.6 13 19 1013.6 2 40.4 39.5 75.9 200.8 220.7 766.5
06/05 13:40 25.5 78 18.47 21.4 15 20 1013.6 2 39.8 38.8 74.2 196.3 215.3 747.7
06/05 13:30 25.9 79 19.13 22 15 26 1013.6 2 41.1 39.9 76.9 203.5 224.1 778.6
06/05 13:20 25 79 18.19 21.1 13 20 1013.7 2 39.2 38.5 73.4 194.2 212.5 737.9
06/05 13:10 25 79 18.19 21.1 17 22 1013.9 2 39.2 38.5 73.4 194.2 212.5 738.0
06/05 13:00 25.3 85 19.9 22.6 15 26 1014 2 42.8 41.7 81.2 214.9 238.0 826.7
06/05 12:50 25 85 19.57 22.3 19 24 1014.2 2 42.2 41.2 80.0 211.6 233.8 812.1
06/05 12:40 25.6 83 19.76 22.5 15 20 1014.2 2 42.5 41.2 80.2 212.3 234.9 815.9
06/05 12:30 25.1 85 19.68 22.4 15 24 1014.2 2 42.4 41.3 80.4 212.7 235.2 817.0
06/05 12:20 25.1 85 19.68 22.4 17 22 1014.3 2 42.4 41.3 80.4 212.7 235.2 817.1
06/05 12:10 25 87 20.03 22.7 19 24 1014.3 2 43.1 42.1 82.2 217.5 241.1 837.4
06/05 12:00 24.5 88 19.69 22.4 17 26 1014.5 2 42.5 41.7 81.1 214.6 237.3 824.3
06/05 11:50 24.1 88 19.25 22 17 22 1014.8 2 41.6 41.0 79.4 210.1 231.7 804.6
06/05 11:40 23.9 89 19.25 22 15 19 1014.9 2 41.6 41.1 79.6 210.7 232.3 806.8
06/05 11:30 23.4 91 19.13 21.8 13 20 1015.1 2 41.4 41.2 79.6 210.6 232.0 805.7
06/05 11:20 22.9 93 19 21.7 13 17 1015.2 2 41.2 41.2 79.5 210.3 231.5 803.9
06/05 11:00 22.4 94 18.67 21.4 15 24 1015.4 2 40.5 40.8 78.4 207.4 227.8 791.0
06/05 09:40 21.3 93 17.33 20.1 11 13 1016.1 0.4 37.8 38.7 73.1 193.2 210.1 729.0
06/05 09:30 22.2 94 18.45 21.2 13 20 1016 0.4 40.1 40.5 77.6 205.2 225.1 781.3
06/05 09:20 22.1 94 18.35 21.1 15 22 1015.8 0.2 39.9 40.3 77.2 204.2 223.7 776.7
06/05 09:10 21.9 95 18.33 21.1 13 17 1015.6 0.2 39.8 40.4 77.3 204.4 224.0 777.6
06/05 09:00 21.8 95 18.23 21 15 22 1015.6 0.2 39.6 40.2 76.9 203.4 222.7 773.1
06/05 08:50 21.8 95 18.23 21 15 20 1015.5 1 39.6 40.2 76.9 203.4 222.7 773.0
06/05 08:40 21.9 96 18.52 21.2 15 19 1015.4 0.8 40.2 40.7 78.2 206.9 227.0 788.0
06/05 08:30 22 96 18.63 21.3 11 17 1015.3 0.8 40.5 40.9 78.6 208.0 228.4 793.0
06/05 08:20 21.8 96 18.42 21.1 13 15 1015.3 0.8 40.0 40.6 77.8 205.8 225.7 783.4
06/05 08:10 21.7 96 18.31 21 13 17 1015.3 0.8 39.8 40.4 77.4 204.7 224.2 778.4
06/05 08:00 21.7 96 18.31 21 15 20 1015.4 0.8 39.8 40.4 77.4 204.7 224.2 778.4
06/05 07:50 21.8 96 18.42 21.1 13 17 1015.3 0.6 40.0 40.6 77.8 205.8 225.7 783.4
06/05 07:40 21.5 95 17.91 20.7 9 13 1015.3 0.6 39.0 39.7 75.6 200.0 218.5 758.3
06/05 07:30 21.2 93 17.23 20 9 17 1015.3 0.4 37.6 38.5 72.7 192.1 208.7 724.1
06/05 07:20 21.1 94 17.32 20.1 13 13 1015.1 0 37.8 38.8 73.2 193.5 210.3 729.9
06/05 07:10 21 94 17.22 20 13 13 1015 0 37.6 38.6 72.8 192.4 209.0 725.3
06/05 07:00 20.9 95 17.3 20.1 13 17 1014.8 0 37.7 38.8 73.3 193.7 210.5 730.6
06/05 06:50 20.8 95 17.2 20 13 15 1014.6 0 37.5 38.6 72.9 192.6 209.2 726.0
06/05 06:40 20.7 95 17.1 19.9 11 13 1014.5 0 37.3 38.5 72.5 191.6 207.9 721.4
06/05 06:30 20.6 95 17 19.8 13 17 1014.4 0 37.1 38.3 72.1 190.6 206.6 716.9
06/05 06:20 20.5 96 17.08 19.8 13 17 1014.4 0 37.3 38.5 72.6 191.8 208.1 722.2
06/05 06:10 20.5 95 16.9 19.7 13 15 1014.2 0 36.9 38.2 71.7 189.5 205.3 712.3
06/05 06:00 20.5 95 16.9 19.7 11 15 1014.1 0 36.9 38.2 71.7 189.5 205.3 712.3
06/05 05:50 20.6 95 17 19.8 11 13 1014.1 0 37.1 38.3 72.1 190.5 206.6 716.7
06/05 05:40 20.7 95 17.1 19.9 11 13 1013.9 0 37.3 38.5 72.4 191.5 207.8 721.1
06/05 05:30 20.7 96 17.28 20 11 15 1013.9 0 37.7 38.8 73.3 193.8 210.6 731.0
06/05 05:20 20.8 96 17.38 20.1 11 13 1013.8 0 37.9 38.9 73.7 194.8 211.9 735.4
06/05 05:10 20.9 96 17.48 20.2 11 13 1013.7 0 38.1 39.1 74.1 195.8 213.2 739.9
06/05 05:00 20.9 96 17.48 20.2 13 15 1013.6 0 38.1 39.1 74.1 195.8 213.2 739.8
06/05 04:50 21 96 17.58 20.3 11 13 1013.5 0 38.3 39.2 74.4 196.8 214.5 744.3
06/05 04:40 21 96 17.58 20.3 11 13 1013.6 0 38.3 39.2 74.4 196.8 214.5 744.3
06/05 04:30 21.2 96 17.79 20.5 11 15 1013.6 0 38.8 39.5 75.3 199.0 217.2 753.9
06/05 04:20 21.5 96 18.1 20.8 13 15 1013.6 0 39.4 40.0 76.5 202.2 221.2 767.9
06/05 04:10 21.5 96 18.1 20.8 13 17 1013.5 0 39.4 40.0 76.5 202.2 221.2 767.9
06/05 04:00 21.4 96 18 20.7 13 20 1013.5 0 39.2 39.9 76.1 201.2 219.9 763.3
06/05 03:50 21.5 96 18.1 20.8 15 19 1013.4 0 39.4 40.0 76.5 202.2 221.2 767.8
06/05 03:40 21.4 96 18 20.7 11 11 1013.5 0 39.2 39.9 76.1 201.2 219.9 763.3
06/05 03:30 21.4 96 18 20.7 13 19 1013.7 0 39.2 39.9 76.1 201.2 220.0 763.5
06/05 03:20 21.4 96 18 20.7 11 13 1013.7 0 39.2 39.9 76.1 201.2 220.0 763.5
06/05 03:10 21.3 96 17.89 20.6 11 15 1013.8 0 39.0 39.7 75.7 200.1 218.5 758.5
06/05 03:00 20.9 96 17.48 20.2 11 15 1013.8 0 38.1 39.1 74.1 195.8 213.2 739.9
06/05 02:50 21 96 17.58 20.3 11 13 1013.8 0 38.3 39.2 74.5 196.9 214.5 744.4
06/05 02:40 20.9 96 17.48 20.2 13 15 1013.9 0 38.1 39.1 74.1 195.8 213.2 740.0
06/05 02:30 20.9 95 17.3 20.1 13 15 1013.9 0 37.7 38.8 73.2 193.5 210.4 730.1
06/05 02:20 20.9 95 17.3 20.1 13 13 1014 0 37.7 38.8 73.2 193.6 210.4 730.2
06/05 02:10 20.9 95 17.3 20.1 11 13 1014.1 0 37.7 38.8 73.2 193.6 210.4 730.2
06/05 02:00 20.8 95 17.2 20 13 15 1014.2 0 37.5 38.6 72.8 192.6 209.1 725.8
06/05 01:50 20.8 95 17.2 20 11 11 1014.3 0 37.5 38.6 72.9 192.6 209.2 725.8
06/05 01:40 20.9 95 17.3 20.1 11 11 1014.5 0 37.7 38.8 73.2 193.6 210.5 730.4
06/05 01:30 20.9 94 17.12 19.9 11 13 1014.5 0 37.3 38.4 72.4 191.3 207.7 720.6
06/05 01:20 21 94 17.22 20 11 11 1014.6 0 37.6 38.6 72.8 192.4 209.0 725.1
06/05 01:10 21 94 17.22 20 11 11 1014.7 0 37.6 38.6 72.8 192.4 209.0 725.2
06/05 01:00 21.1 94 17.32 20.1 11 13 1014.8 0 37.8 38.7 73.2 193.4 210.3 729.7
06/05 00:50 21.2 93 17.23 20 11 13 1014.8 0 37.6 38.5 72.6 192.0 208.6 723.9
06/05 00:40 21.3 93 17.33 20.1 11 11 1014.9 0 37.8 38.7 73.0 193.0 209.9 728.4
06/05 00:30 21.4 93 17.43 20.2 9 13 1014.8 0 38.0 38.8 73.4 194.1 211.1 732.8
06/05 00:20 21.4 93 17.43 20.2 9 11 1015 0 38.0 38.8 73.4 194.1 211.2 732.9
06/05 00:10 21.5 92 17.35 20.1 9 11 1015.1 0 37.8 38.6 72.9 192.8 209.7 727.6
06/05 00:00 21.6 92 17.45 20.2 9 11 1015.2 0 38.0 38.8 73.3 193.9 210.9 732.1
05/05 23:50 21.8 91 17.46 20.3 9 9 1015.3 0 38.0 38.7 73.2 193.5 210.5 730.8

Last Refresh: 06-May-2026 17:18:25

Bureau of Meteorology